sensor_id;sensor_type;location;lat;lon;timestamp;P1;durP1;ratioP1;P2;durP2;ratioP2
40022;SDS011;25713;-35.352;149.036;2022-10-31T00:04:11;1.73;;;1.10;;
40022;SDS011;25713;-35.352;149.036;2022-10-31T00:06:40;1.65;;;1.02;;
40022;SDS011;25713;-35.352;149.036;2022-10-31T00:09:10;2.63;;;1.10;;
40022;SDS011;25713;-35.352;149.036;2022-10-31T00:11:39;4.10;;;1.00;;
40022;SDS011;25713;-35.352;149.036;2022-10-31T00:14:09;3.25;;;1.30;;
40022;SDS011;25713;-35.352;149.036;2022-10-31T00:16:40;2.45;;;1.35;;
40022;SDS011;25713;-35.352;149.036;2022-10-31T00:19:09;2.03;;;1.30;;
40022;SDS011;25713;-35.352;149.036;2022-10-31T00:21:39;1.35;;;1.08;;
40022;SDS011;25713;-35.352;149.036;2022-10-31T00:24:08;2.70;;;1.30;;
40022;SDS011;25713;-35.352;149.036;2022-10-31T00:26:38;1.85;;;1.30;;
40022;SDS011;25713;-35.352;149.036;2022-10-31T00:29:07;2.35;;;1.30;;
40022;SDS011;25713;-35.352;149.036;2022-10-31T00:31:40;2.13;;;1.30;;
40022;SDS011;25713;-35.352;149.036;2022-10-31T00:34:10;4.32;;;1.10;;
40022;SDS011;25713;-35.352;149.036;2022-10-31T00:36:39;3.88;;;0.90;;
40022;SDS011;25713;-35.352;149.036;2022-10-31T00:39:12;2.53;;;1.13;;
40022;SDS011;25713;-35.352;149.036;2022-10-31T00:41:41;1.20;;;1.10;;
40022;SDS011;25713;-35.352;149.036;2022-10-31T00:44:13;1.95;;;1.20;;
40022;SDS011;25713;-35.352;149.036;2022-10-31T00:46:44;1.20;;;1.10;;
40022;SDS011;25713;-35.352;149.036;2022-10-31T00:49:13;2.50;;;1.13;;
40022;SDS011;25713;-35.352;149.036;2022-10-31T00:51:42;1.98;;;1.10;;
40022;SDS011;25713;-35.352;149.036;2022-10-31T00:54:12;2.05;;;1.20;;
40022;SDS011;25713;-35.352;149.036;2022-10-31T00:56:42;1.25;;;1.02;;
40022;SDS011;25713;-35.352;149.036;2022-10-31T00:59:11;2.03;;;1.00;;
40022;SDS011;25713;-35.352;149.036;2022-10-31T01:01:43;2.00;;;1.10;;
40022;SDS011;25713;-35.352;149.036;2022-10-31T01:04:13;4.32;;;1.20;;
40022;SDS011;25713;-35.352;149.036;2022-10-31T01:06:42;4.03;;;1.23;;
40022;SDS011;25713;-35.352;149.036;2022-10-31T01:09:12;3.60;;;1.40;;
40022;SDS011;25713;-35.352;149.036;2022-10-31T01:11:41;1.27;;;0.98;;
40022;SDS011;25713;-35.352;149.036;2022-10-31T01:14:10;1.77;;;0.90;;
40022;SDS011;25713;-35.352;149.036;2022-10-31T01:16:40;1.55;;;1.30;;
40022;SDS011;25713;-35.352;149.036;2022-10-31T01:19:11;1.67;;;1.27;;
40022;SDS011;25713;-35.352;149.036;2022-10-31T01:21:41;2.95;;;1.00;;
40022;SDS011;25713;-35.352;149.036;2022-10-31T01:24:10;1.85;;;1.20;;
40022;SDS011;25713;-35.352;149.036;2022-10-31T01:26:39;2.47;;;1.30;;
40022;SDS011;25713;-35.352;149.036;2022-10-31T01:29:10;1.52;;;1.10;;
40022;SDS011;25713;-35.352;149.036;2022-10-31T01:31:39;1.52;;;1.20;;
40022;SDS011;25713;-35.352;149.036;2022-10-31T01:34:13;1.75;;;1.20;;
40022;SDS011;25713;-35.352;149.036;2022-10-31T01:36:44;2.75;;;1.15;;
40022;SDS011;25713;-35.352;149.036;2022-10-31T01:39:14;3.35;;;1.42;;
40022;SDS011;25713;-35.352;149.036;2022-10-31T01:41:45;4.90;;;1.20;;
40022;SDS011;25713;-35.352;149.036;2022-10-31T01:47:21;2.42;;;1.20;;
40022;SDS011;25713;-35.352;149.036;2022-10-31T01:50:03;3.00;;;1.23;;
40022;SDS011;25713;-35.352;149.036;2022-10-31T01:52:38;4.53;;;2.00;;
40022;SDS011;25713;-35.352;149.036;2022-10-31T01:55:12;4.10;;;1.35;;
40022;SDS011;25713;-35.352;149.036;2022-10-31T01:57:44;1.70;;;1.25;;
40022;SDS011;25713;-35.352;149.036;2022-10-31T02:00:17;1.58;;;1.25;;
40022;SDS011;25713;-35.352;149.036;2022-10-31T02:02:48;1.88;;;1.42;;
40022;SDS011;25713;-35.352;149.036;2022-10-31T02:05:20;1.63;;;1.35;;
40022;SDS011;25713;-35.352;149.036;2022-10-31T02:07:54;3.00;;;1.35;;
40022;SDS011;25713;-35.352;149.036;2022-10-31T02:10:30;3.63;;;1.40;;
40022;SDS011;25713;-35.352;149.036;2022-10-31T02:13:01;2.78;;;1.55;;
40022;SDS011;25713;-35.352;149.036;2022-10-31T02:15:31;2.50;;;1.80;;
40022;SDS011;25713;-35.352;149.036;2022-10-31T02:18:02;7.35;;;1.80;;
40022;SDS011;25713;-35.352;149.036;2022-10-31T02:20:35;3.72;;;1.45;;
40022;SDS011;25713;-35.352;149.036;2022-10-31T02:29:12;1.73;;;1.40;;
40022;SDS011;25713;-35.352;149.036;2022-10-31T02:32:04;3.47;;;1.30;;
40022;SDS011;25713;-35.352;149.036;2022-10-31T02:34:40;3.33;;;1.30;;
40022;SDS011;25713;-35.352;149.036;2022-10-31T02:37:16;2.65;;;1.20;;
40022;SDS011;25713;-35.352;149.036;2022-10-31T02:39:52;3.28;;;0.95;;
40022;SDS011;25713;-35.352;149.036;2022-10-31T02:42:43;4.43;;;1.20;;
40022;SDS011;25713;-35.352;149.036;2022-10-31T02:45:20;1.30;;;0.82;;
40022;SDS011;25713;-35.352;149.036;2022-10-31T02:47:58;1.80;;;0.90;;
40022;SDS011;25713;-35.352;149.036;2022-10-31T02:50:31;1.00;;;0.90;;
40022;SDS011;25713;-35.352;149.036;2022-10-31T02:53:03;1.40;;;0.80;;
40022;SDS011;25713;-35.352;149.036;2022-10-31T02:55:44;4.13;;;0.80;;
40022;SDS011;25713;-35.352;149.036;2022-10-31T02:58:20;1.00;;;0.90;;
40022;SDS011;25713;-35.352;149.036;2022-10-31T03:00:58;1.00;;;0.80;;
40022;SDS011;25713;-35.352;149.036;2022-10-31T03:04:00;1.13;;;0.90;;
40022;SDS011;25713;-35.352;149.036;2022-10-31T03:06:45;0.93;;;0.90;;
40022;SDS011;25713;-35.352;149.036;2022-10-31T03:09:20;1.27;;;0.88;;
40022;SDS011;25713;-35.352;149.036;2022-10-31T03:11:57;1.92;;;0.85;;
40022;SDS011;25713;-35.352;149.036;2022-10-31T03:14:33;0.68;;;0.68;;
40022;SDS011;25713;-35.352;149.036;2022-10-31T03:17:09;1.50;;;0.90;;
40022;SDS011;25713;-35.352;149.036;2022-10-31T03:19:52;3.15;;;1.00;;
40022;SDS011;25713;-35.352;149.036;2022-10-31T03:22:22;1.27;;;0.90;;
40022;SDS011;25713;-35.352;149.036;2022-10-31T03:24:53;1.45;;;0.70;;
40022;SDS011;25713;-35.352;149.036;2022-10-31T03:27:25;0.95;;;0.90;;
40022;SDS011;25713;-35.352;149.036;2022-10-31T03:29:57;2.63;;;0.82;;
40022;SDS011;25713;-35.352;149.036;2022-10-31T03:32:31;1.05;;;0.77;;
40022;SDS011;25713;-35.352;149.036;2022-10-31T03:35:09;1.10;;;0.77;;
40022;SDS011;25713;-35.352;149.036;2022-10-31T03:37:40;2.45;;;1.00;;
40022;SDS011;25713;-35.352;149.036;2022-10-31T03:40:15;1.02;;;0.85;;
40022;SDS011;25713;-35.352;149.036;2022-10-31T03:42:48;1.27;;;0.90;;
40022;SDS011;25713;-35.352;149.036;2022-10-31T03:45:23;1.52;;;0.95;;
40022;SDS011;25713;-35.352;149.036;2022-10-31T03:47:55;1.00;;;0.80;;
40022;SDS011;25713;-35.352;149.036;2022-10-31T03:50:33;1.70;;;0.93;;
40022;SDS011;25713;-35.352;149.036;2022-10-31T03:53:09;3.33;;;1.08;;
40022;SDS011;25713;-35.352;149.036;2022-10-31T03:55:45;1.75;;;1.02;;
40022;SDS011;25713;-35.352;149.036;2022-10-31T03:58:20;5.07;;;1.05;;
40022;SDS011;25713;-35.352;149.036;2022-10-31T04:00:54;1.65;;;1.10;;
40022;SDS011;25713;-35.352;149.036;2022-10-31T04:03:25;2.03;;;0.85;;
40022;SDS011;25713;-35.352;149.036;2022-10-31T04:06:01;1.27;;;1.08;;
40022;SDS011;25713;-35.352;149.036;2022-10-31T04:08:36;2.78;;;1.10;;
40022;SDS011;25713;-35.352;149.036;2022-10-31T04:11:12;1.88;;;1.27;;
40022;SDS011;25713;-35.352;149.036;2022-10-31T04:14:01;1.80;;;1.10;;
40022;SDS011;25713;-35.352;149.036;2022-10-31T04:16:32;2.33;;;1.10;;
40022;SDS011;25713;-35.352;149.036;2022-10-31T04:19:02;1.27;;;0.90;;
40022;SDS011;25713;-35.352;149.036;2022-10-31T04:21:34;1.67;;;0.90;;
40022;SDS011;25713;-35.352;149.036;2022-10-31T04:24:03;3.45;;;1.10;;
40022;SDS011;25713;-35.352;149.036;2022-10-31T04:26:33;3.78;;;0.80;;
40022;SDS011;25713;-35.352;149.036;2022-10-31T04:29:03;1.75;;;0.90;;
40022;SDS011;25713;-35.352;149.036;2022-10-31T04:31:32;2.55;;;0.70;;
40022;SDS011;25713;-35.352;149.036;2022-10-31T04:34:02;2.08;;;1.42;;
40022;SDS011;25713;-35.352;149.036;2022-10-31T04:36:34;2.65;;;1.10;;
40022;SDS011;25713;-35.352;149.036;2022-10-31T04:39:03;2.08;;;0.95;;
40022;SDS011;25713;-35.352;149.036;2022-10-31T04:41:41;4.32;;;0.90;;
40022;SDS011;25713;-35.352;149.036;2022-10-31T04:44:16;3.65;;;1.00;;
40022;SDS011;25713;-35.352;149.036;2022-10-31T04:46:49;3.30;;;0.70;;
40022;SDS011;25713;-35.352;149.036;2022-10-31T04:49:18;5.40;;;0.70;;
40022;SDS011;25713;-35.352;149.036;2022-10-31T04:51:50;4.18;;;0.70;;
40022;SDS011;25713;-35.352;149.036;2022-10-31T04:54:20;1.23;;;0.70;;
40022;SDS011;25713;-35.352;149.036;2022-10-31T04:57:07;5.97;;;0.65;;
40022;SDS011;25713;-35.352;149.036;2022-10-31T04:59:37;2.45;;;0.60;;
40022;SDS011;25713;-35.352;149.036;2022-10-31T05:02:08;1.48;;;0.77;;
40022;SDS011;25713;-35.352;149.036;2022-10-31T05:04:50;6.03;;;0.60;;
40022;SDS011;25713;-35.352;149.036;2022-10-31T05:07:23;0.70;;;0.47;;
40022;SDS011;25713;-35.352;149.036;2022-10-31T05:09:53;6.23;;;0.50;;
40022;SDS011;25713;-35.352;149.036;2022-10-31T05:12:22;4.40;;;0.40;;
40022;SDS011;25713;-35.352;149.036;2022-10-31T05:15:03;0.30;;;0.20;;
40022;SDS011;25713;-35.352;149.036;2022-10-31T05:17:51;2.42;;;0.38;;
40022;SDS011;25713;-35.352;149.036;2022-10-31T05:20:30;1.20;;;0.68;;
40022;SDS011;25713;-35.352;149.036;2022-10-31T05:23:31;5.82;;;0.60;;
40022;SDS011;25713;-35.352;149.036;2022-10-31T05:26:00;0.80;;;0.55;;
40022;SDS011;25713;-35.352;149.036;2022-10-31T05:28:30;1.67;;;0.40;;
40022;SDS011;25713;-35.352;149.036;2022-10-31T05:31:00;3.65;;;0.60;;
40022;SDS011;25713;-35.352;149.036;2022-10-31T05:33:30;1.27;;;0.40;;
40022;SDS011;25713;-35.352;149.036;2022-10-31T05:36:08;2.20;;;0.40;;
40022;SDS011;25713;-35.352;149.036;2022-10-31T05:38:45;2.33;;;0.40;;
40022;SDS011;25713;-35.352;149.036;2022-10-31T05:41:23;0.57;;;0.22;;
40022;SDS011;25713;-35.352;149.036;2022-10-31T05:44:01;0.68;;;0.30;;
40022;SDS011;25713;-35.352;149.036;2022-10-31T05:46:33;3.20;;;0.30;;
40022;SDS011;25713;-35.352;149.036;2022-10-31T05:49:25;1.75;;;0.45;;
40022;SDS011;25713;-35.352;149.036;2022-10-31T05:52:14;0.50;;;0.30;;
40022;SDS011;25713;-35.352;149.036;2022-10-31T05:54:54;0.93;;;0.35;;
40022;SDS011;25713;-35.352;149.036;2022-10-31T05:57:23;0.65;;;0.30;;
40022;SDS011;25713;-35.352;149.036;2022-10-31T05:59:53;0.73;;;0.50;;
40022;SDS011;25713;-35.352;149.036;2022-10-31T06:02:24;0.60;;;0.28;;
40022;SDS011;25713;-35.352;149.036;2022-10-31T06:05:14;0.65;;;0.30;;
40022;SDS011;25713;-35.352;149.036;2022-10-31T06:07:43;0.52;;;0.40;;
40022;SDS011;25713;-35.352;149.036;2022-10-31T06:10:15;2.30;;;0.40;;
40022;SDS011;25713;-35.352;149.036;2022-10-31T06:12:46;1.55;;;0.43;;
40022;SDS011;25713;-35.352;149.036;2022-10-31T06:15:29;0.65;;;0.35;;
40022;SDS011;25713;-35.352;149.036;2022-10-31T06:18:00;0.40;;;0.35;;
40022;SDS011;25713;-35.352;149.036;2022-10-31T06:20:34;0.25;;;0.20;;
40022;SDS011;25713;-35.352;149.036;2022-10-31T06:23:04;0.40;;;0.30;;
40022;SDS011;25713;-35.352;149.036;2022-10-31T06:25:37;1.05;;;0.40;;
40022;SDS011;25713;-35.352;149.036;2022-10-31T06:28:06;0.20;;;0.20;;
40022;SDS011;25713;-35.352;149.036;2022-10-31T06:30:57;6.00;;;0.40;;
40022;SDS011;25713;-35.352;149.036;2022-10-31T06:33:27;1.80;;;0.70;;
40022;SDS011;25713;-35.352;149.036;2022-10-31T06:35:58;2.65;;;1.00;;
40022;SDS011;25713;-35.352;149.036;2022-10-31T06:38:28;3.97;;;1.00;;
40022;SDS011;25713;-35.352;149.036;2022-10-31T06:41:03;2.28;;;1.10;;
40022;SDS011;25713;-35.352;149.036;2022-10-31T06:43:46;1.95;;;0.90;;
40022;SDS011;25713;-35.352;149.036;2022-10-31T06:46:50;3.05;;;0.77;;
40022;SDS011;25713;-35.352;149.036;2022-10-31T06:49:45;3.22;;;0.98;;
40022;SDS011;25713;-35.352;149.036;2022-10-31T06:52:17;1.20;;;0.90;;
40022;SDS011;25713;-35.352;149.036;2022-10-31T06:54:47;1.73;;;1.00;;
40022;SDS011;25713;-35.352;149.036;2022-10-31T06:57:18;1.42;;;0.80;;
40022;SDS011;25713;-35.352;149.036;2022-10-31T06:59:48;2.80;;;0.90;;
40022;SDS011;25713;-35.352;149.036;2022-10-31T07:02:17;2.22;;;0.73;;
40022;SDS011;25713;-35.352;149.036;2022-10-31T07:04:46;0.82;;;0.70;;
40022;SDS011;25713;-35.352;149.036;2022-10-31T07:07:18;1.65;;;0.82;;
40022;SDS011;25713;-35.352;149.036;2022-10-31T07:09:47;1.67;;;0.80;;
40022;SDS011;25713;-35.352;149.036;2022-10-31T07:14:57;3.05;;;0.60;;
40022;SDS011;25713;-35.352;149.036;2022-10-31T07:17:26;1.30;;;0.80;;
40022;SDS011;25713;-35.352;149.036;2022-10-31T07:19:58;0.95;;;0.70;;
40022;SDS011;25713;-35.352;149.036;2022-10-31T07:22:32;1.00;;;0.68;;
40022;SDS011;25713;-35.352;149.036;2022-10-31T07:25:03;0.95;;;0.60;;
40022;SDS011;25713;-35.352;149.036;2022-10-31T07:30:09;4.30;;;0.80;;
40022;SDS011;25713;-35.352;149.036;2022-10-31T07:32:39;1.50;;;1.08;;
40022;SDS011;25713;-35.352;149.036;2022-10-31T07:35:10;1.35;;;1.00;;
40022;SDS011;25713;-35.352;149.036;2022-10-31T07:37:47;1.63;;;1.00;;
40022;SDS011;25713;-35.352;149.036;2022-10-31T07:40:17;1.45;;;1.00;;
40022;SDS011;25713;-35.352;149.036;2022-10-31T07:42:50;1.33;;;0.98;;
40022;SDS011;25713;-35.352;149.036;2022-10-31T07:45:37;1.40;;;1.30;;
40022;SDS011;25713;-35.352;149.036;2022-10-31T07:48:25;2.35;;;1.55;;
40022;SDS011;25713;-35.352;149.036;2022-10-31T07:51:14;2.08;;;1.77;;
40022;SDS011;25713;-35.352;149.036;2022-10-31T07:53:52;1.95;;;1.77;;
40022;SDS011;25713;-35.352;149.036;2022-10-31T07:56:28;2.33;;;2.13;;
40022;SDS011;25713;-35.352;149.036;2022-10-31T07:59:01;1.60;;;1.30;;
40022;SDS011;25713;-35.352;149.036;2022-10-31T08:01:30;2.55;;;1.90;;
40022;SDS011;25713;-35.352;149.036;2022-10-31T08:04:19;2.13;;;1.80;;
40022;SDS011;25713;-35.352;149.036;2022-10-31T08:07:07;2.30;;;2.15;;
40022;SDS011;25713;-35.352;149.036;2022-10-31T08:09:38;4.60;;;1.60;;
40022;SDS011;25713;-35.352;149.036;2022-10-31T08:12:18;2.15;;;1.98;;
40022;SDS011;25713;-35.352;149.036;2022-10-31T08:14:50;2.53;;;2.33;;
40022;SDS011;25713;-35.352;149.036;2022-10-31T08:17:20;1.88;;;1.77;;
40022;SDS011;25713;-35.352;149.036;2022-10-31T08:19:58;2.20;;;2.00;;
40022;SDS011;25713;-35.352;149.036;2022-10-31T08:22:32;1.92;;;1.83;;
40022;SDS011;25713;-35.352;149.036;2022-10-31T08:25:02;1.67;;;1.30;;
40022;SDS011;25713;-35.352;149.036;2022-10-31T08:27:32;2.17;;;1.45;;
40022;SDS011;25713;-35.352;149.036;2022-10-31T08:30:04;4.20;;;1.85;;
40022;SDS011;25713;-35.352;149.036;2022-10-31T08:32:39;3.45;;;1.50;;
40022;SDS011;25713;-35.352;149.036;2022-10-31T08:35:26;1.13;;;1.02;;
40022;SDS011;25713;-35.352;149.036;2022-10-31T08:38:15;1.10;;;1.00;;
40022;SDS011;25713;-35.352;149.036;2022-10-31T08:40:47;1.67;;;1.10;;
40022;SDS011;25713;-35.352;149.036;2022-10-31T08:43:17;1.20;;;1.10;;
40022;SDS011;25713;-35.352;149.036;2022-10-31T08:45:50;0.85;;;0.85;;
40022;SDS011;25713;-35.352;149.036;2022-10-31T08:48:27;1.45;;;0.95;;
40022;SDS011;25713;-35.352;149.036;2022-10-31T08:50:57;1.00;;;0.90;;
40022;SDS011;25713;-35.352;149.036;2022-10-31T08:53:28;1.40;;;1.00;;
40022;SDS011;25713;-35.352;149.036;2022-10-31T08:56:16;0.82;;;0.60;;
40022;SDS011;25713;-35.352;149.036;2022-10-31T08:58:46;1.10;;;1.00;;
40022;SDS011;25713;-35.352;149.036;2022-10-31T09:01:18;0.70;;;0.70;;
40022;SDS011;25713;-35.352;149.036;2022-10-31T09:03:48;1.33;;;0.70;;
40022;SDS011;25713;-35.352;149.036;2022-10-31T09:06:17;1.95;;;0.85;;
40022;SDS011;25713;-35.352;149.036;2022-10-31T09:08:48;2.60;;;0.60;;
40022;SDS011;25713;-35.352;149.036;2022-10-31T09:11:18;1.70;;;0.63;;
40022;SDS011;25713;-35.352;149.036;2022-10-31T09:14:05;0.63;;;0.63;;
40022;SDS011;25713;-35.352;149.036;2022-10-31T09:16:42;2.47;;;0.80;;
40022;SDS011;25713;-35.352;149.036;2022-10-31T09:19:22;0.98;;;0.90;;
40022;SDS011;25713;-35.352;149.036;2022-10-31T09:21:52;0.55;;;0.55;;
40022;SDS011;25713;-35.352;149.036;2022-10-31T09:24:22;1.40;;;0.73;;
40022;SDS011;25713;-35.352;149.036;2022-10-31T09:26:53;1.23;;;0.60;;
40022;SDS011;25713;-35.352;149.036;2022-10-31T09:29:29;0.63;;;0.60;;
40022;SDS011;25713;-35.352;149.036;2022-10-31T09:32:03;3.40;;;0.63;;
40022;SDS011;25713;-35.352;149.036;2022-10-31T09:34:38;14.48;;;0.70;;
40022;SDS011;25713;-35.352;149.036;2022-10-31T09:37:12;0.75;;;0.50;;
40022;SDS011;25713;-35.352;149.036;2022-10-31T09:39:43;3.15;;;0.50;;
40022;SDS011;25713;-35.352;149.036;2022-10-31T09:42:27;0.40;;;0.40;;
40022;SDS011;25713;-35.352;149.036;2022-10-31T09:45:20;2.47;;;0.50;;
40022;SDS011;25713;-35.352;149.036;2022-10-31T09:48:01;4.13;;;0.60;;
40022;SDS011;25713;-35.352;149.036;2022-10-31T09:50:38;1.10;;;0.60;;
40022;SDS011;25713;-35.352;149.036;2022-10-31T10:05:02;0.35;;;0.35;;
40022;SDS011;25713;-35.352;149.036;2022-10-31T10:07:40;1.10;;;0.40;;
40022;SDS011;25713;-35.352;149.036;2022-10-31T10:10:34;0.28;;;0.28;;
40022;SDS011;25713;-35.352;149.036;2022-10-31T10:13:35;0.82;;;0.43;;
40022;SDS011;25713;-35.352;149.036;2022-10-31T10:16:16;6.72;;;0.60;;
40022;SDS011;25713;-35.352;149.036;2022-10-31T10:18:59;0.88;;;0.38;;
40022;SDS011;25713;-35.352;149.036;2022-10-31T10:21:42;0.47;;;0.30;;
40022;SDS011;25713;-35.352;149.036;2022-10-31T10:24:20;0.40;;;0.32;;
40022;SDS011;25713;-35.352;149.036;2022-10-31T10:26:59;1.17;;;0.40;;
40022;SDS011;25713;-35.352;149.036;2022-10-31T10:29:40;0.57;;;0.35;;
40022;SDS011;25713;-35.352;149.036;2022-10-31T10:32:17;0.50;;;0.30;;
40022;SDS011;25713;-35.352;149.036;2022-10-31T10:34:51;2.45;;;0.30;;
40022;SDS011;25713;-35.352;149.036;2022-10-31T10:37:28;0.30;;;0.30;;
40022;SDS011;25713;-35.352;149.036;2022-10-31T10:40:03;0.25;;;0.25;;
40022;SDS011;25713;-35.352;149.036;2022-10-31T10:42:39;0.20;;;0.20;;
40022;SDS011;25713;-35.352;149.036;2022-10-31T10:45:14;0.73;;;0.30;;
40022;SDS011;25713;-35.352;149.036;2022-10-31T10:47:44;0.28;;;0.28;;
40022;SDS011;25713;-35.352;149.036;2022-10-31T10:50:22;0.70;;;0.40;;
40022;SDS011;25713;-35.352;149.036;2022-10-31T10:52:59;0.40;;;0.40;;
40022;SDS011;25713;-35.352;149.036;2022-10-31T10:55:36;0.60;;;0.40;;
40022;SDS011;25713;-35.352;149.036;2022-10-31T10:58:11;2.28;;;0.50;;
40022;SDS011;25713;-35.352;149.036;2022-10-31T11:00:41;0.38;;;0.38;;
40022;SDS011;25713;-35.352;149.036;2022-10-31T11:03:12;0.60;;;0.50;;
40022;SDS011;25713;-35.352;149.036;2022-10-31T11:05:44;0.47;;;0.40;;
40022;SDS011;25713;-35.352;149.036;2022-10-31T11:08:25;0.50;;;0.40;;
40022;SDS011;25713;-35.352;149.036;2022-10-31T11:10:57;2.85;;;0.40;;
40022;SDS011;25713;-35.352;149.036;2022-10-31T11:13:28;0.52;;;0.40;;
40022;SDS011;25713;-35.352;149.036;2022-10-31T11:16:00;1.00;;;0.50;;
40022;SDS011;25713;-35.352;149.036;2022-10-31T11:18:32;1.17;;;0.40;;
40022;SDS011;25713;-35.352;149.036;2022-10-31T11:21:04;3.03;;;0.40;;
40022;SDS011;25713;-35.352;149.036;2022-10-31T11:23:49;0.63;;;0.50;;
40022;SDS011;25713;-35.352;149.036;2022-10-31T11:26:28;0.47;;;0.47;;
40022;SDS011;25713;-35.352;149.036;2022-10-31T11:28:58;1.77;;;0.65;;
40022;SDS011;25713;-35.352;149.036;2022-10-31T11:31:28;1.17;;;0.70;;
40022;SDS011;25713;-35.352;149.036;2022-10-31T11:33:59;0.80;;;0.60;;
40022;SDS011;25713;-35.352;149.036;2022-10-31T11:36:30;0.50;;;0.50;;
40022;SDS011;25713;-35.352;149.036;2022-10-31T11:39:05;0.50;;;0.50;;
40022;SDS011;25713;-35.352;149.036;2022-10-31T11:41:45;0.82;;;0.50;;
40022;SDS011;25713;-35.352;149.036;2022-10-31T11:44:16;0.63;;;0.45;;
40022;SDS011;25713;-35.352;149.036;2022-10-31T11:46:48;1.75;;;0.50;;
40022;SDS011;25713;-35.352;149.036;2022-10-31T11:49:21;0.37;;;0.37;;
40022;SDS011;25713;-35.352;149.036;2022-10-31T11:51:56;0.57;;;0.30;;
40022;SDS011;25713;-35.352;149.036;2022-10-31T11:54:30;0.30;;;0.30;;
40022;SDS011;25713;-35.352;149.036;2022-10-31T11:57:03;0.47;;;0.47;;
40022;SDS011;25713;-35.352;149.036;2022-10-31T11:59:32;0.30;;;0.28;;
40022;SDS011;25713;-35.352;149.036;2022-10-31T12:02:02;0.25;;;0.25;;
40022;SDS011;25713;-35.352;149.036;2022-10-31T12:04:46;0.98;;;0.20;;
40022;SDS011;25713;-35.352;149.036;2022-10-31T12:07:19;0.20;;;0.20;;
40022;SDS011;25713;-35.352;149.036;2022-10-31T12:09:52;0.30;;;0.30;;
40022;SDS011;25713;-35.352;149.036;2022-10-31T12:12:29;0.30;;;0.30;;
40022;SDS011;25713;-35.352;149.036;2022-10-31T12:18:00;2.38;;;0.30;;
40022;SDS011;25713;-35.352;149.036;2022-10-31T12:20:44;1.60;;;0.40;;
40022;SDS011;25713;-35.352;149.036;2022-10-31T12:23:23;2.38;;;0.50;;
40022;SDS011;25713;-35.352;149.036;2022-10-31T12:26:04;0.75;;;0.40;;
40022;SDS011;25713;-35.352;149.036;2022-10-31T12:28:43;0.55;;;0.30;;
40022;SDS011;25713;-35.352;149.036;2022-10-31T12:31:38;0.50;;;0.40;;
40022;SDS011;25713;-35.352;149.036;2022-10-31T12:34:33;1.15;;;0.52;;
40022;SDS011;25713;-35.352;149.036;2022-10-31T12:37:15;0.40;;;0.30;;
40022;SDS011;25713;-35.352;149.036;2022-10-31T12:39:53;0.88;;;0.50;;
40022;SDS011;25713;-35.352;149.036;2022-10-31T12:42:38;0.75;;;0.60;;
40022;SDS011;25713;-35.352;149.036;2022-10-31T12:45:22;0.85;;;0.40;;
40022;SDS011;25713;-35.352;149.036;2022-10-31T12:48:11;2.17;;;0.50;;
40022;SDS011;25713;-35.352;149.036;2022-10-31T12:50:55;1.55;;;0.70;;
40022;SDS011;25713;-35.352;149.036;2022-10-31T12:53:37;1.80;;;0.80;;
40022;SDS011;25713;-35.352;149.036;2022-10-31T12:56:20;0.93;;;0.60;;
40022;SDS011;25713;-35.352;149.036;2022-10-31T12:58:59;1.45;;;0.90;;
40022;SDS011;25713;-35.352;149.036;2022-10-31T13:01:36;2.38;;;0.77;;
40022;SDS011;25713;-35.352;149.036;2022-10-31T13:04:14;1.42;;;0.85;;
40022;SDS011;25713;-35.352;149.036;2022-10-31T13:06:46;1.40;;;1.00;;
40022;SDS011;25713;-35.352;149.036;2022-10-31T13:09:17;0.83;;;0.80;;
40022;SDS011;25713;-35.352;149.036;2022-10-31T13:11:55;1.77;;;0.98;;
40022;SDS011;25713;-35.352;149.036;2022-10-31T13:16:58;1.05;;;0.90;;
40022;SDS011;25713;-35.352;149.036;2022-10-31T13:19:30;1.60;;;0.98;;
40022;SDS011;25713;-35.352;149.036;2022-10-31T13:22:02;2.60;;;0.90;;
40022;SDS011;25713;-35.352;149.036;2022-10-31T13:24:36;3.75;;;1.00;;
40022;SDS011;25713;-35.352;149.036;2022-10-31T13:27:11;3.42;;;1.10;;
40022;SDS011;25713;-35.352;149.036;2022-10-31T13:29:51;4.53;;;0.90;;
40022;SDS011;25713;-35.352;149.036;2022-10-31T13:32:28;2.65;;;0.95;;
40022;SDS011;25713;-35.352;149.036;2022-10-31T13:35:08;1.92;;;1.00;;
40022;SDS011;25713;-35.352;149.036;2022-10-31T13:37:44;2.33;;;0.93;;
40022;SDS011;25713;-35.352;149.036;2022-10-31T13:40:20;1.45;;;0.80;;
40022;SDS011;25713;-35.352;149.036;2022-10-31T13:43:02;2.72;;;1.10;;
40022;SDS011;25713;-35.352;149.036;2022-10-31T13:45:46;1.20;;;0.88;;
40022;SDS011;25713;-35.352;149.036;2022-10-31T13:48:18;1.85;;;0.82;;
40022;SDS011;25713;-35.352;149.036;2022-10-31T13:51:01;2.22;;;1.00;;
40022;SDS011;25713;-35.352;149.036;2022-10-31T13:53:39;2.45;;;1.00;;
40022;SDS011;25713;-35.352;149.036;2022-10-31T13:56:19;4.53;;;0.90;;
40022;SDS011;25713;-35.352;149.036;2022-10-31T13:58:56;3.38;;;0.90;;
40022;SDS011;25713;-35.352;149.036;2022-10-31T14:01:48;1.13;;;0.68;;
40022;SDS011;25713;-35.352;149.036;2022-10-31T14:04:19;1.55;;;0.80;;
40022;SDS011;25713;-35.352;149.036;2022-10-31T14:06:57;1.67;;;0.70;;
40022;SDS011;25713;-35.352;149.036;2022-10-31T14:09:33;1.77;;;0.85;;
40022;SDS011;25713;-35.352;149.036;2022-10-31T14:12:05;3.08;;;0.60;;
40022;SDS011;25713;-35.352;149.036;2022-10-31T14:14:41;1.17;;;0.60;;
40022;SDS011;25713;-35.352;149.036;2022-10-31T14:17:25;3.22;;;0.80;;
40022;SDS011;25713;-35.352;149.036;2022-10-31T14:19:59;0.52;;;0.52;;
40022;SDS011;25713;-35.352;149.036;2022-10-31T14:22:48;0.57;;;0.40;;
40022;SDS011;25713;-35.352;149.036;2022-10-31T14:25:30;1.02;;;0.40;;
40022;SDS011;25713;-35.352;149.036;2022-10-31T14:28:01;0.60;;;0.40;;
40022;SDS011;25713;-35.352;149.036;2022-10-31T14:30:51;1.15;;;0.30;;
40022;SDS011;25713;-35.352;149.036;2022-10-31T14:33:24;0.45;;;0.40;;
40022;SDS011;25713;-35.352;149.036;2022-10-31T14:35:56;0.40;;;0.40;;
40022;SDS011;25713;-35.352;149.036;2022-10-31T14:41:34;0.75;;;0.45;;
40022;SDS011;25713;-35.352;149.036;2022-10-31T14:44:23;0.30;;;0.30;;
40022;SDS011;25713;-35.352;149.036;2022-10-31T14:47:13;1.35;;;0.30;;
40022;SDS011;25713;-35.352;149.036;2022-10-31T16:04:28;0.35;;;0.10;;
40022;SDS011;25713;-35.352;149.036;2022-10-31T16:06:59;0.10;;;0.10;;
40022;SDS011;25713;-35.352;149.036;2022-10-31T16:09:29;0.60;;;0.20;;
40022;SDS011;25713;-35.352;149.036;2022-10-31T16:11:58;1.65;;;0.10;;
40022;SDS011;25713;-35.352;149.036;2022-10-31T16:14:28;0.08;;;0.08;;
40022;SDS011;25713;-35.352;149.036;2022-10-31T16:17:00;1.95;;;0.10;;
40022;SDS011;25713;-35.352;149.036;2022-10-31T16:19:33;0.10;;;0.10;;
40022;SDS011;25713;-35.352;149.036;2022-10-31T16:22:06;0.32;;;0.10;;
40022;SDS011;25713;-35.352;149.036;2022-10-31T16:24:43;0.20;;;0.20;;
40022;SDS011;25713;-35.352;149.036;2022-10-31T16:27:17;0.35;;;0.17;;
40022;SDS011;25713;-35.352;149.036;2022-10-31T16:29:48;0.22;;;0.15;;
40022;SDS011;25713;-35.352;149.036;2022-10-31T16:32:26;0.10;;;0.10;;
40022;SDS011;25713;-35.352;149.036;2022-10-31T16:35:16;0.10;;;0.10;;
40022;SDS011;25713;-35.352;149.036;2022-10-31T16:37:55;0.10;;;0.10;;
40022;SDS011;25713;-35.352;149.036;2022-10-31T16:40:25;0.50;;;0.20;;
40022;SDS011;25713;-35.352;149.036;2022-10-31T16:42:55;0.10;;;0.10;;
40022;SDS011;25713;-35.352;149.036;2022-10-31T16:45:26;0.60;;;0.20;;
40022;SDS011;25713;-35.352;149.036;2022-10-31T16:48:01;0.30;;;0.20;;